Newtown, Connecticut
Current Conditions -  °F | °C
As of 9:53 AM on Wednesday 26 Nov 2014 (Local Time) from KDXR Reporting Station
Light Snow Light Snow  
Wind Chill: 29°   Ceiling: 700
Heat Index: 33°   Visibility: 0.5mi
Dew Point: 30°   Wind: 5mph
Humidity: 89%   Direction: 40°NE
Pressure: 30.15"   Gusts: NA
Location:  41.41°N, 73.3°W
Report Text: KDXR 261453Z 04004KT 1/2SM -SN FG VV007 01/M01 A3015 RMK AO2 SLP214 P0012 60020 T00061011 55011
Loading
Personal Weather Stations






























Interactive Weather Map New forecast layout! Learn more

10-Day Weather Forecast

Advertisements
Track Severe Weather on mobile